sensor_id;sensor_type;location;lat;lon;timestamp;temperature;humidity
20498;DHT22;10407;53.238;10.448;2023-08-17T00:02:12;18.80;99.90
20498;DHT22;10407;53.238;10.448;2023-08-17T00:04:40;18.90;99.90
20498;DHT22;10407;53.238;10.448;2023-08-17T00:07:08;18.90;99.90
20498;DHT22;10407;53.238;10.448;2023-08-17T00:09:35;18.90;99.90
20498;DHT22;10407;53.238;10.448;2023-08-17T00:12:03;18.80;99.90
20498;DHT22;10407;53.238;10.448;2023-08-17T00:14:31;19.00;99.90
20498;DHT22;10407;53.238;10.448;2023-08-17T00:16:58;19.10;99.90
20498;DHT22;10407;53.238;10.448;2023-08-17T00:19:26;19.10;98.90
20498;DHT22;10407;53.238;10.448;2023-08-17T00:21:54;19.20;98.60
20498;DHT22;10407;53.238;10.448;2023-08-17T00:24:22;19.30;98.00
20498;DHT22;10407;53.238;10.448;2023-08-17T00:26:49;19.30;98.00
20498;DHT22;10407;53.238;10.448;2023-08-17T00:29:17;19.00;98.70
20498;DHT22;10407;53.238;10.448;2023-08-17T00:31:45;19.00;99.10
20498;DHT22;10407;53.238;10.448;2023-08-17T00:34:12;18.60;99.90
20498;DHT22;10407;53.238;10.448;2023-08-17T00:36:40;18.80;99.90
20498;DHT22;10407;53.238;10.448;2023-08-17T00:39:07;19.10;99.60
20498;DHT22;10407;53.238;10.448;2023-08-17T00:41:35;19.10;98.60
20498;DHT22;10407;53.238;10.448;2023-08-17T00:44:02;19.00;99.40
20498;DHT22;10407;53.238;10.448;2023-08-17T00:46:30;19.00;99.10
20498;DHT22;10407;53.238;10.448;2023-08-17T00:48:58;18.90;99.30
20498;DHT22;10407;53.238;10.448;2023-08-17T00:51:26;18.90;99.70
20498;DHT22;10407;53.238;10.448;2023-08-17T00:53:57;19.00;99.90
20498;DHT22;10407;53.238;10.448;2023-08-17T00:56:26;18.70;99.90
20498;DHT22;10407;53.238;10.448;2023-08-17T00:58:55;18.80;99.90
20498;DHT22;10407;53.238;10.448;2023-08-17T01:01:23;18.90;99.80
20498;DHT22;10407;53.238;10.448;2023-08-17T01:03:50;18.80;99.50
20498;DHT22;10407;53.238;10.448;2023-08-17T01:06:19;18.70;99.90
20498;DHT22;10407;53.238;10.448;2023-08-17T01:08:47;18.70;99.90
20498;DHT22;10407;53.238;10.448;2023-08-17T01:11:28;18.80;99.90
20498;DHT22;10407;53.238;10.448;2023-08-17T01:13:57;18.80;99.90
20498;DHT22;10407;53.238;10.448;2023-08-17T01:16:43;18.80;99.90
20498;DHT22;10407;53.238;10.448;2023-08-17T01:19:08;18.90;99.90
20498;DHT22;10407;53.238;10.448;2023-08-17T01:21:41;18.90;99.30
20498;DHT22;10407;53.238;10.448;2023-08-17T01:24:07;19.10;99.20
20498;DHT22;10407;53.238;10.448;2023-08-17T01:26:35;18.90;99.90
20498;DHT22;10407;53.238;10.448;2023-08-17T01:29:02;19.00;99.60
20498;DHT22;10407;53.238;10.448;2023-08-17T01:31:47;19.00;99.10
20498;DHT22;10407;53.238;10.448;2023-08-17T01:34:14;18.70;99.90
20498;DHT22;10407;53.238;10.448;2023-08-17T01:36:47;18.80;99.90
20498;DHT22;10407;53.238;10.448;2023-08-17T01:39:16;18.90;99.20
20498;DHT22;10407;53.238;10.448;2023-08-17T01:41:46;18.80;99.60
20498;DHT22;10407;53.238;10.448;2023-08-17T01:44:14;18.50;99.90
20498;DHT22;10407;53.238;10.448;2023-08-17T01:46:42;18.50;99.90
20498;DHT22;10407;53.238;10.448;2023-08-17T01:49:10;18.80;99.90
20498;DHT22;10407;53.238;10.448;2023-08-17T01:51:37;18.70;99.90
20498;DHT22;10407;53.238;10.448;2023-08-17T01:54:05;18.70;99.90
20498;DHT22;10407;53.238;10.448;2023-08-17T01:56:32;18.80;99.90
20498;DHT22;10407;53.238;10.448;2023-08-17T01:59:00;18.50;99.40
20498;DHT22;10407;53.238;10.448;2023-08-17T02:01:27;18.30;99.90
20498;DHT22;10407;53.238;10.448;2023-08-17T02:07:17;18.70;99.90
20498;DHT22;10407;53.238;10.448;2023-08-17T02:09:45;18.70;99.60
20498;DHT22;10407;53.238;10.448;2023-08-17T02:12:12;18.90;99.20
20498;DHT22;10407;53.238;10.448;2023-08-17T02:14:40;18.80;99.40
20498;DHT22;10407;53.238;10.448;2023-08-17T02:17:07;18.60;99.60
20498;DHT22;10407;53.238;10.448;2023-08-17T02:19:35;18.50;99.90
20498;DHT22;10407;53.238;10.448;2023-08-17T02:22:02;18.50;99.90
20498;DHT22;10407;53.238;10.448;2023-08-17T02:24:30;18.60;99.90
20498;DHT22;10407;53.238;10.448;2023-08-17T02:26:57;18.70;99.90
20498;DHT22;10407;53.238;10.448;2023-08-17T02:29:25;18.60;99.90
20498;DHT22;10407;53.238;10.448;2023-08-17T02:31:52;18.60;99.90
20498;DHT22;10407;53.238;10.448;2023-08-17T02:37:42;18.80;99.90
20498;DHT22;10407;53.238;10.448;2023-08-17T02:40:10;18.90;99.60
20498;DHT22;10407;53.238;10.448;2023-08-17T02:42:38;18.70;99.90
20498;DHT22;10407;53.238;10.448;2023-08-17T02:45:07;18.50;99.90
20498;DHT22;10407;53.238;10.448;2023-08-17T02:47:34;18.90;99.90
20498;DHT22;10407;53.238;10.448;2023-08-17T02:50:02;18.90;99.90
20498;DHT22;10407;53.238;10.448;2023-08-17T02:52:29;18.90;99.80
20498;DHT22;10407;53.238;10.448;2023-08-17T02:54:57;18.70;99.90
20498;DHT22;10407;53.238;10.448;2023-08-17T02:57:24;18.70;99.90
20498;DHT22;10407;53.238;10.448;2023-08-17T02:59:52;18.20;99.90
20498;DHT22;10407;53.238;10.448;2023-08-17T03:02:19;18.00;99.90
20498;DHT22;10407;53.238;10.448;2023-08-17T03:04:47;18.20;99.90
20498;DHT22;10407;53.238;10.448;2023-08-17T03:07:15;18.10;99.90
20498;DHT22;10407;53.238;10.448;2023-08-17T03:09:42;18.20;99.90
20498;DHT22;10407;53.238;10.448;2023-08-17T03:12:10;18.70;99.90
20498;DHT22;10407;53.238;10.448;2023-08-17T03:17:59;19.00;99.90
20498;DHT22;10407;53.238;10.448;2023-08-17T03:20:27;19.00;99.90
20498;DHT22;10407;53.238;10.448;2023-08-17T03:22:54;18.40;99.90
20498;DHT22;10407;53.238;10.448;2023-08-17T03:25:22;18.40;99.90
20498;DHT22;10407;53.238;10.448;2023-08-17T03:27:49;18.60;99.90
20498;DHT22;10407;53.238;10.448;2023-08-17T03:30:17;18.60;99.90
20498;DHT22;10407;53.238;10.448;2023-08-17T03:32:44;18.70;99.90
20498;DHT22;10407;53.238;10.448;2023-08-17T03:35:12;18.40;99.90
20498;DHT22;10407;53.238;10.448;2023-08-17T03:37:39;18.30;99.90
20498;DHT22;10407;53.238;10.448;2023-08-17T03:40:07;18.20;99.90
20498;DHT22;10407;53.238;10.448;2023-08-17T03:42:35;18.50;99.90
20498;DHT22;10407;53.238;10.448;2023-08-17T03:45:05;18.50;99.90
20498;DHT22;10407;53.238;10.448;2023-08-17T03:47:32;18.30;99.90
20498;DHT22;10407;53.238;10.448;2023-08-17T03:50:00;18.10;99.90
20498;DHT22;10407;53.238;10.448;2023-08-17T03:52:27;18.30;99.90
20498;DHT22;10407;53.238;10.448;2023-08-17T03:54:55;18.10;99.90
20498;DHT22;10407;53.238;10.448;2023-08-17T03:57:22;18.50;99.90
20498;DHT22;10407;53.238;10.448;2023-08-17T03:59:50;18.20;99.90
20498;DHT22;10407;53.238;10.448;2023-08-17T04:02:17;18.10;99.90
20498;DHT22;10407;53.238;10.448;2023-08-17T04:04:45;18.40;99.90
20498;DHT22;10407;53.238;10.448;2023-08-17T04:07:14;18.60;99.90
20498;DHT22;10407;53.238;10.448;2023-08-17T04:09:43;18.70;99.90
20498;DHT22;10407;53.238;10.448;2023-08-17T04:12:11;18.70;99.90
20498;DHT22;10407;53.238;10.448;2023-08-17T04:14:39;18.70;99.90
20498;DHT22;10407;53.238;10.448;2023-08-17T04:17:06;18.70;99.90
20498;DHT22;10407;53.238;10.448;2023-08-17T04:19:34;18.80;99.90
20498;DHT22;10407;53.238;10.448;2023-08-17T04:22:01;18.70;99.90
20498;DHT22;10407;53.238;10.448;2023-08-17T04:24:29;18.60;99.90
20498;DHT22;10407;53.238;10.448;2023-08-17T04:26:56;18.40;99.90
20498;DHT22;10407;53.238;10.448;2023-08-17T04:29:24;18.40;99.90
20498;DHT22;10407;53.238;10.448;2023-08-17T04:31:52;18.50;99.90
20498;DHT22;10407;53.238;10.448;2023-08-17T04:34:20;18.50;99.90
20498;DHT22;10407;53.238;10.448;2023-08-17T04:36:48;18.50;99.90
20498;DHT22;10407;53.238;10.448;2023-08-17T04:39:15;18.50;99.90
20498;DHT22;10407;53.238;10.448;2023-08-17T04:41:44;18.50;99.90
20498;DHT22;10407;53.238;10.448;2023-08-17T04:44:11;18.50;99.90
20498;DHT22;10407;53.238;10.448;2023-08-17T04:46:39;18.50;99.90
20498;DHT22;10407;53.238;10.448;2023-08-17T04:49:06;18.60;99.90
20498;DHT22;10407;53.238;10.448;2023-08-17T04:51:34;18.50;99.90
20498;DHT22;10407;53.238;10.448;2023-08-17T04:54:01;18.30;99.90
20498;DHT22;10407;53.238;10.448;2023-08-17T04:56:29;18.10;99.90
20498;DHT22;10407;53.238;10.448;2023-08-17T04:58:57;17.90;99.90
20498;DHT22;10407;53.238;10.448;2023-08-17T05:01:24;17.80;99.90
20498;DHT22;10407;53.238;10.448;2023-08-17T05:03:52;17.60;99.90
20498;DHT22;10407;53.238;10.448;2023-08-17T05:06:20;17.40;99.90
20498;DHT22;10407;53.238;10.448;2023-08-17T05:08:48;17.60;99.90
20498;DHT22;10407;53.238;10.448;2023-08-17T05:11:15;17.60;99.90
20498;DHT22;10407;53.238;10.448;2023-08-17T05:13:43;17.70;99.90
20498;DHT22;10407;53.238;10.448;2023-08-17T05:16:10;17.20;99.90
20498;DHT22;10407;53.238;10.448;2023-08-17T05:18:38;17.10;99.90
20498;DHT22;10407;53.238;10.448;2023-08-17T05:21:05;17.00;99.90
20498;DHT22;10407;53.238;10.448;2023-08-17T05:23:33;17.10;99.90
20498;DHT22;10407;53.238;10.448;2023-08-17T05:26:01;16.90;99.90
20498;DHT22;10407;53.238;10.448;2023-08-17T05:28:28;16.70;99.90
20498;DHT22;10407;53.238;10.448;2023-08-17T05:30:56;16.90;99.90
20498;DHT22;10407;53.238;10.448;2023-08-17T05:33:23;16.90;99.90
20498;DHT22;10407;53.238;10.448;2023-08-17T05:35:54;16.80;99.90
20498;DHT22;10407;53.238;10.448;2023-08-17T05:38:22;16.60;99.90
20498;DHT22;10407;53.238;10.448;2023-08-17T05:40:54;16.80;99.90
20498;DHT22;10407;53.238;10.448;2023-08-17T05:43:23;16.80;99.90
20498;DHT22;10407;53.238;10.448;2023-08-17T05:45:51;16.90;99.90
20498;DHT22;10407;53.238;10.448;2023-08-17T05:48:21;16.80;99.90
20498;DHT22;10407;53.238;10.448;2023-08-17T05:50:49;16.80;99.90
20498;DHT22;10407;53.238;10.448;2023-08-17T05:53:16;17.10;99.90
20498;DHT22;10407;53.238;10.448;2023-08-17T05:55:44;17.00;99.90
20498;DHT22;10407;53.238;10.448;2023-08-17T05:58:11;16.80;99.90
20498;DHT22;10407;53.238;10.448;2023-08-17T06:00:39;16.80;99.90
20498;DHT22;10407;53.238;10.448;2023-08-17T06:03:07;16.50;99.90
20498;DHT22;10407;53.238;10.448;2023-08-17T06:05:35;16.20;99.90
20498;DHT22;10407;53.238;10.448;2023-08-17T06:08:03;16.40;99.90
20498;DHT22;10407;53.238;10.448;2023-08-17T06:10:31;16.30;99.90
20498;DHT22;10407;53.238;10.448;2023-08-17T06:12:58;16.00;99.90
20498;DHT22;10407;53.238;10.448;2023-08-17T06:15:26;16.20;99.90
20498;DHT22;10407;53.238;10.448;2023-08-17T06:17:53;16.10;99.90
20498;DHT22;10407;53.238;10.448;2023-08-17T06:20:21;16.00;99.90
20498;DHT22;10407;53.238;10.448;2023-08-17T06:22:48;16.00;99.90
20498;DHT22;10407;53.238;10.448;2023-08-17T06:25:16;16.40;99.90
20498;DHT22;10407;53.238;10.448;2023-08-17T06:27:43;16.40;99.90
20498;DHT22;10407;53.238;10.448;2023-08-17T06:30:12;16.10;99.90
20498;DHT22;10407;53.238;10.448;2023-08-17T06:32:39;15.90;99.90
20498;DHT22;10407;53.238;10.448;2023-08-17T06:35:07;15.80;99.90
20498;DHT22;10407;53.238;10.448;2023-08-17T06:37:35;15.70;99.90
20498;DHT22;10407;53.238;10.448;2023-08-17T06:40:04;15.80;99.90
20498;DHT22;10407;53.238;10.448;2023-08-17T06:42:32;15.50;99.90
20498;DHT22;10407;53.238;10.448;2023-08-17T06:45:00;15.60;99.90
20498;DHT22;10407;53.238;10.448;2023-08-17T06:47:27;15.40;99.90
20498;DHT22;10407;53.238;10.448;2023-08-17T06:49:55;15.40;99.90
20498;DHT22;10407;53.238;10.448;2023-08-17T06:52:24;15.30;99.90
20498;DHT22;10407;53.238;10.448;2023-08-17T06:54:51;15.40;99.90
20498;DHT22;10407;53.238;10.448;2023-08-17T06:57:19;15.50;99.90
20498;DHT22;10407;53.238;10.448;2023-08-17T06:59:48;15.40;99.90
20498;DHT22;10407;53.238;10.448;2023-08-17T07:02:15;15.10;99.90
20498;DHT22;10407;53.238;10.448;2023-08-17T07:04:43;15.00;99.90
20498;DHT22;10407;53.238;10.448;2023-08-17T07:07:10;15.10;99.90
20498;DHT22;10407;53.238;10.448;2023-08-17T07:09:38;15.20;99.90
20498;DHT22;10407;53.238;10.448;2023-08-17T07:12:06;15.20;99.90
20498;DHT22;10407;53.238;10.448;2023-08-17T07:14:33;15.30;99.90
20498;DHT22;10407;53.238;10.448;2023-08-17T07:17:01;15.30;99.90
20498;DHT22;10407;53.238;10.448;2023-08-17T07:19:28;15.20;99.90
20498;DHT22;10407;53.238;10.448;2023-08-17T07:21:56;15.20;99.90
20498;DHT22;10407;53.238;10.448;2023-08-17T07:24:23;15.50;99.90
20498;DHT22;10407;53.238;10.448;2023-08-17T07:26:51;15.30;99.90
20498;DHT22;10407;53.238;10.448;2023-08-17T07:29:18;15.50;99.90
20498;DHT22;10407;53.238;10.448;2023-08-17T07:31:46;15.50;99.90
20498;DHT22;10407;53.238;10.448;2023-08-17T07:34:13;15.50;99.90
20498;DHT22;10407;53.238;10.448;2023-08-17T07:36:41;15.40;99.90
20498;DHT22;10407;53.238;10.448;2023-08-17T07:39:09;15.30;99.90
20498;DHT22;10407;53.238;10.448;2023-08-17T07:41:36;15.50;99.90
20498;DHT22;10407;53.238;10.448;2023-08-17T07:44:04;15.50;99.90
20498;DHT22;10407;53.238;10.448;2023-08-17T07:46:32;15.60;99.90
20498;DHT22;10407;53.238;10.448;2023-08-17T07:48:59;15.70;99.90
20498;DHT22;10407;53.238;10.448;2023-08-17T07:51:27;16.10;99.90
20498;DHT22;10407;53.238;10.448;2023-08-17T07:53:56;15.90;99.90
20498;DHT22;10407;53.238;10.448;2023-08-17T07:56:23;16.20;99.90
20498;DHT22;10407;53.238;10.448;2023-08-17T07:58:52;16.40;99.90
20498;DHT22;10407;53.238;10.448;2023-08-17T08:01:20;16.50;99.90
20498;DHT22;10407;53.238;10.448;2023-08-17T08:03:48;16.80;99.90
20498;DHT22;10407;53.238;10.448;2023-08-17T08:06:15;16.10;99.90
20498;DHT22;10407;53.238;10.448;2023-08-17T08:08:43;16.20;99.90
20498;DHT22;10407;53.238;10.448;2023-08-17T08:11:10;16.60;99.90
20498;DHT22;10407;53.238;10.448;2023-08-17T08:13:38;16.70;99.90
20498;DHT22;10407;53.238;10.448;2023-08-17T08:16:06;16.80;99.90
20498;DHT22;10407;53.238;10.448;2023-08-17T08:18:33;17.00;99.90
20498;DHT22;10407;53.238;10.448;2023-08-17T08:21:01;17.10;99.90
20498;DHT22;10407;53.238;10.448;2023-08-17T08:23:28;17.10;99.90
20498;DHT22;10407;53.238;10.448;2023-08-17T08:25:56;17.30;99.90
20498;DHT22;10407;53.238;10.448;2023-08-17T08:28:24;17.20;99.90
20498;DHT22;10407;53.238;10.448;2023-08-17T08:30:52;17.20;99.90
20498;DHT22;10407;53.238;10.448;2023-08-17T08:33:20;17.20;99.90
20498;DHT22;10407;53.238;10.448;2023-08-17T08:35:47;17.30;99.90
20498;DHT22;10407;53.238;10.448;2023-08-17T08:38:15;17.30;99.90
20498;DHT22;10407;53.238;10.448;2023-08-17T08:40:43;17.30;99.90
20498;DHT22;10407;53.238;10.448;2023-08-17T08:43:13;17.30;99.90
20498;DHT22;10407;53.238;10.448;2023-08-17T08:45:44;17.30;99.90
20498;DHT22;10407;53.238;10.448;2023-08-17T08:48:13;17.30;99.90
20498;DHT22;10407;53.238;10.448;2023-08-17T08:50:43;17.50;99.90
20498;DHT22;10407;53.238;10.448;2023-08-17T08:53:15;17.60;99.90
20498;DHT22;10407;53.238;10.448;2023-08-17T08:55:49;17.40;99.90
20498;DHT22;10407;53.238;10.448;2023-08-17T08:58:15;17.40;99.90
20498;DHT22;10407;53.238;10.448;2023-08-17T09:00:45;17.50;99.90
20498;DHT22;10407;53.238;10.448;2023-08-17T09:03:12;17.60;99.90
20498;DHT22;10407;53.238;10.448;2023-08-17T09:05:41;17.70;99.90
20498;DHT22;10407;53.238;10.448;2023-08-17T09:08:10;17.60;99.90
20498;DHT22;10407;53.238;10.448;2023-08-17T09:10:39;17.60;99.90
20498;DHT22;10407;53.238;10.448;2023-08-17T09:13:08;17.60;99.90
20498;DHT22;10407;53.238;10.448;2023-08-17T09:22:45;18.00;99.90
20498;DHT22;10407;53.238;10.448;2023-08-17T09:24:53;18.00;99.90
20498;DHT22;10407;53.238;10.448;2023-08-17T09:27:21;18.10;99.90
20498;DHT22;10407;53.238;10.448;2023-08-17T09:29:48;18.00;99.90
20498;DHT22;10407;53.238;10.448;2023-08-17T09:32:16;17.90;99.90
20498;DHT22;10407;53.238;10.448;2023-08-17T09:34:44;17.80;99.90
20498;DHT22;10407;53.238;10.448;2023-08-17T09:37:15;17.70;99.90
20498;DHT22;10407;53.238;10.448;2023-08-17T09:39:42;17.80;99.90
20498;DHT22;10407;53.238;10.448;2023-08-17T09:42:10;17.60;99.90
20498;DHT22;10407;53.238;10.448;2023-08-17T09:44:38;16.80;99.90
20498;DHT22;10407;53.238;10.448;2023-08-17T09:47:05;17.00;99.90
20498;DHT22;10407;53.238;10.448;2023-08-17T09:49:33;17.20;99.90
20498;DHT22;10407;53.238;10.448;2023-08-17T09:52:01;17.10;99.90
20498;DHT22;10407;53.238;10.448;2023-08-17T09:54:32;17.30;99.90
20498;DHT22;10407;53.238;10.448;2023-08-17T09:56:59;17.60;99.90
20498;DHT22;10407;53.238;10.448;2023-08-17T09:59:27;17.60;99.90
20498;DHT22;10407;53.238;10.448;2023-08-17T10:01:56;17.70;99.90
20498;DHT22;10407;53.238;10.448;2023-08-17T10:04:26;17.70;99.90
20498;DHT22;10407;53.238;10.448;2023-08-17T10:07:00;17.20;99.90
20498;DHT22;10407;53.238;10.448;2023-08-17T10:09:39;17.10;99.90
20498;DHT22;10407;53.238;10.448;2023-08-17T10:12:06;17.30;99.90
20498;DHT22;10407;53.238;10.448;2023-08-17T10:14:36;17.00;99.90
20498;DHT22;10407;53.238;10.448;2023-08-17T10:17:08;17.10;99.90
20498;DHT22;10407;53.238;10.448;2023-08-17T10:19:43;17.40;99.90
20498;DHT22;10407;53.238;10.448;2023-08-17T10:22:15;17.20;99.90
20498;DHT22;10407;53.238;10.448;2023-08-17T10:24:43;17.10;99.90
20498;DHT22;10407;53.238;10.448;2023-08-17T10:27:12;16.60;99.90
20498;DHT22;10407;53.238;10.448;2023-08-17T10:33:05;16.60;99.90
20498;DHT22;10407;53.238;10.448;2023-08-17T10:35:34;16.80;99.90
20498;DHT22;10407;53.238;10.448;2023-08-17T10:38:03;17.00;99.90
20498;DHT22;10407;53.238;10.448;2023-08-17T10:40:39;17.20;99.90
20498;DHT22;10407;53.238;10.448;2023-08-17T10:43:07;17.20;99.90
20498;DHT22;10407;53.238;10.448;2023-08-17T10:45:35;17.20;99.90
20498;DHT22;10407;53.238;10.448;2023-08-17T10:50:58;16.90;99.90
20498;DHT22;10407;53.238;10.448;2023-08-17T10:53:14;17.30;99.90
20498;DHT22;10407;53.238;10.448;2023-08-17T10:55:46;16.90;99.90
20498;DHT22;10407;53.238;10.448;2023-08-17T10:58:18;17.20;99.90
20498;DHT22;10407;53.238;10.448;2023-08-17T11:00:45;17.00;99.90
20498;DHT22;10407;53.238;10.448;2023-08-17T11:03:20;17.10;99.90
20498;DHT22;10407;53.238;10.448;2023-08-17T11:05:50;17.00;99.90
20498;DHT22;10407;53.238;10.448;2023-08-17T11:08:34;16.90;99.90
20498;DHT22;10407;53.238;10.448;2023-08-17T11:11:09;16.70;99.90
20498;DHT22;10407;53.238;10.448;2023-08-17T11:13:44;16.70;99.90
20498;DHT22;10407;53.238;10.448;2023-08-17T11:16:09;16.80;99.90
20498;DHT22;10407;53.238;10.448;2023-08-17T11:18:37;16.60;99.90
20498;DHT22;10407;53.238;10.448;2023-08-17T11:21:06;16.70;99.90
20498;DHT22;10407;53.238;10.448;2023-08-17T11:23:35;16.30;99.90
20498;DHT22;10407;53.238;10.448;2023-08-17T11:26:04;16.40;99.90
20498;DHT22;10407;53.238;10.448;2023-08-17T11:28:34;16.50;99.90
20498;DHT22;10407;53.238;10.448;2023-08-17T11:31:09;16.50;99.90
20498;DHT22;10407;53.238;10.448;2023-08-17T11:33:38;16.50;99.90
20498;DHT22;10407;53.238;10.448;2023-08-17T11:36:07;16.50;99.90
20498;DHT22;10407;53.238;10.448;2023-08-17T11:38:38;16.70;99.90
20498;DHT22;10407;53.238;10.448;2023-08-17T11:41:07;17.00;99.90
20498;DHT22;10407;53.238;10.448;2023-08-17T11:43:35;16.60;99.90
20498;DHT22;10407;53.238;10.448;2023-08-17T11:46:03;17.00;99.90
20498;DHT22;10407;53.238;10.448;2023-08-17T11:48:32;17.00;99.90
20498;DHT22;10407;53.238;10.448;2023-08-17T11:51:00;16.80;99.90
20498;DHT22;10407;53.238;10.448;2023-08-17T11:53:33;16.90;99.90
20498;DHT22;10407;53.238;10.448;2023-08-17T11:56:01;17.20;99.90
20498;DHT22;10407;53.238;10.448;2023-08-17T11:58:46;17.30;99.90
20498;DHT22;10407;53.238;10.448;2023-08-17T12:01:14;17.20;99.90
20498;DHT22;10407;53.238;10.448;2023-08-17T12:03:44;17.30;99.90
20498;DHT22;10407;53.238;10.448;2023-08-17T12:06:12;17.00;99.90
20498;DHT22;10407;53.238;10.448;2023-08-17T12:08:45;17.20;99.90
20498;DHT22;10407;53.238;10.448;2023-08-17T12:11:13;17.40;99.90
20498;DHT22;10407;53.238;10.448;2023-08-17T12:13:43;17.20;99.90
20498;DHT22;10407;53.238;10.448;2023-08-17T12:16:15;17.30;99.90
20498;DHT22;10407;53.238;10.448;2023-08-17T12:18:45;16.80;99.90
20498;DHT22;10407;53.238;10.448;2023-08-17T12:21:13;16.90;99.90
20498;DHT22;10407;53.238;10.448;2023-08-17T12:23:41;16.70;99.90
20498;DHT22;10407;53.238;10.448;2023-08-17T12:26:19;16.60;99.90
20498;DHT22;10407;53.238;10.448;2023-08-17T12:28:47;16.60;99.90
20498;DHT22;10407;53.238;10.448;2023-08-17T12:31:14;16.70;99.90
20498;DHT22;10407;53.238;10.448;2023-08-17T12:33:43;16.70;99.90
20498;DHT22;10407;53.238;10.448;2023-08-17T12:36:11;16.80;99.90
20498;DHT22;10407;53.238;10.448;2023-08-17T12:38:38;16.50;99.90
20498;DHT22;10407;53.238;10.448;2023-08-17T12:41:07;16.40;99.90
20498;DHT22;10407;53.238;10.448;2023-08-17T12:43:35;16.50;99.90
20498;DHT22;10407;53.238;10.448;2023-08-17T12:46:02;17.00;99.90
20498;DHT22;10407;53.238;10.448;2023-08-17T12:48:30;16.60;99.90
20498;DHT22;10407;53.238;10.448;2023-08-17T12:50:58;16.90;99.90
20498;DHT22;10407;53.238;10.448;2023-08-17T12:53:25;16.90;99.90
20498;DHT22;10407;53.238;10.448;2023-08-17T12:55:53;16.80;99.90
20498;DHT22;10407;53.238;10.448;2023-08-17T12:58:20;16.70;99.90
20498;DHT22;10407;53.238;10.448;2023-08-17T13:00:48;16.60;99.90
20498;DHT22;10407;53.238;10.448;2023-08-17T13:03:20;16.80;99.90
20498;DHT22;10407;53.238;10.448;2023-08-17T13:05:47;16.70;99.90
20498;DHT22;10407;53.238;10.448;2023-08-17T13:08:15;16.70;99.90
20498;DHT22;10407;53.238;10.448;2023-08-17T13:10:42;16.70;99.90
20498;DHT22;10407;53.238;10.448;2023-08-17T13:13:10;16.80;99.90
20498;DHT22;10407;53.238;10.448;2023-08-17T13:15:37;16.70;99.90
20498;DHT22;10407;53.238;10.448;2023-08-17T13:18:05;16.60;99.90
20498;DHT22;10407;53.238;10.448;2023-08-17T13:20:32;16.70;99.90
20498;DHT22;10407;53.238;10.448;2023-08-17T13:23:00;16.90;99.90
20498;DHT22;10407;53.238;10.448;2023-08-17T13:25:28;17.00;99.90
20498;DHT22;10407;53.238;10.448;2023-08-17T13:27:55;16.90;99.90
20498;DHT22;10407;53.238;10.448;2023-08-17T13:30:23;17.10;99.90
20498;DHT22;10407;53.238;10.448;2023-08-17T13:32:51;17.30;99.90
20498;DHT22;10407;53.238;10.448;2023-08-17T13:42:05;17.00;99.90
20498;DHT22;10407;53.238;10.448;2023-08-17T13:44:32;17.30;99.90
20498;DHT22;10407;53.238;10.448;2023-08-17T13:47:00;17.50;99.90
20498;DHT22;10407;53.238;10.448;2023-08-17T13:49:28;17.20;99.90
20498;DHT22;10407;53.238;10.448;2023-08-17T13:51:55;17.20;99.90
20498;DHT22;10407;53.238;10.448;2023-08-17T13:54:23;17.20;99.90
20498;DHT22;10407;53.238;10.448;2023-08-17T13:56:51;17.30;99.90
20498;DHT22;10407;53.238;10.448;2023-08-17T13:59:19;17.40;99.90
20498;DHT22;10407;53.238;10.448;2023-08-17T14:01:46;17.60;99.90
20498;DHT22;10407;53.238;10.448;2023-08-17T14:04:14;17.60;99.90
20498;DHT22;10407;53.238;10.448;2023-08-17T14:06:43;17.80;99.90
20498;DHT22;10407;53.238;10.448;2023-08-17T14:09:11;17.60;99.90
20498;DHT22;10407;53.238;10.448;2023-08-17T14:11:38;17.50;99.90
20498;DHT22;10407;53.238;10.448;2023-08-17T14:14:06;17.40;99.90
20498;DHT22;10407;53.238;10.448;2023-08-17T14:16:33;17.20;99.90
20498;DHT22;10407;53.238;10.448;2023-08-17T14:19:01;17.70;99.90
20498;DHT22;10407;53.238;10.448;2023-08-17T14:21:29;17.90;99.90
20498;DHT22;10407;53.238;10.448;2023-08-17T14:23:56;17.90;99.90
20498;DHT22;10407;53.238;10.448;2023-08-17T14:26:23;17.90;99.90
20498;DHT22;10407;53.238;10.448;2023-08-17T14:28:51;17.30;99.90
20498;DHT22;10407;53.238;10.448;2023-08-17T14:31:19;17.40;99.90
20498;DHT22;10407;53.238;10.448;2023-08-17T14:33:47;17.40;99.90
20498;DHT22;10407;53.238;10.448;2023-08-17T14:36:16;17.80;99.90
20498;DHT22;10407;53.238;10.448;2023-08-17T14:38:43;17.90;99.90
20498;DHT22;10407;53.238;10.448;2023-08-17T14:41:11;17.90;99.90
20498;DHT22;10407;53.238;10.448;2023-08-17T14:43:38;17.70;99.90
20498;DHT22;10407;53.238;10.448;2023-08-17T14:46:06;17.70;99.90
20498;DHT22;10407;53.238;10.448;2023-08-17T14:48:34;17.70;99.90
20498;DHT22;10407;53.238;10.448;2023-08-17T14:51:01;17.50;99.90
20498;DHT22;10407;53.238;10.448;2023-08-17T14:53:29;17.60;99.90
20498;DHT22;10407;53.238;10.448;2023-08-17T14:55:56;17.50;99.90
20498;DHT22;10407;53.238;10.448;2023-08-17T14:58:24;17.70;99.90
20498;DHT22;10407;53.238;10.448;2023-08-17T15:00:52;17.80;99.90
20498;DHT22;10407;53.238;10.448;2023-08-17T15:03:19;17.60;99.90
20498;DHT22;10407;53.238;10.448;2023-08-17T15:05:47;17.60;99.90
20498;DHT22;10407;53.238;10.448;2023-08-17T15:08:14;17.40;99.90
20498;DHT22;10407;53.238;10.448;2023-08-17T15:10:43;17.40;99.90
20498;DHT22;10407;53.238;10.448;2023-08-17T15:13:10;17.30;99.90
20498;DHT22;10407;53.238;10.448;2023-08-17T15:15:38;17.40;99.90
20498;DHT22;10407;53.238;10.448;2023-08-17T15:18:07;17.00;99.90
20498;DHT22;10407;53.238;10.448;2023-08-17T15:20:39;16.90;99.90
20498;DHT22;10407;53.238;10.448;2023-08-17T15:23:06;16.90;99.90
20498;DHT22;10407;53.238;10.448;2023-08-17T15:25:34;17.00;99.90
20498;DHT22;10407;53.238;10.448;2023-08-17T15:28:02;17.20;99.90
20498;DHT22;10407;53.238;10.448;2023-08-17T15:30:29;17.20;99.90
20498;DHT22;10407;53.238;10.448;2023-08-17T15:32:57;17.20;99.90
20498;DHT22;10407;53.238;10.448;2023-08-17T15:35:25;17.50;99.90
20498;DHT22;10407;53.238;10.448;2023-08-17T15:37:52;17.40;99.90
20498;DHT22;10407;53.238;10.448;2023-08-17T15:40:20;17.50;99.90
20498;DHT22;10407;53.238;10.448;2023-08-17T15:42:47;17.50;99.90
20498;DHT22;10407;53.238;10.448;2023-08-17T15:45:15;17.30;99.90
20498;DHT22;10407;53.238;10.448;2023-08-17T15:47:44;17.50;99.90
20498;DHT22;10407;53.238;10.448;2023-08-17T15:50:12;17.50;99.90
20498;DHT22;10407;53.238;10.448;2023-08-17T15:52:39;17.30;99.90